リオデジャネイロ/サントス・デュモン の空港の天気 - METARとTAF

サントス・デュモン空港 ( SBRJ / SDU ) - ブラジル リオデジャネイロ州リオデジャネイロ市
飛行場実況気象(Metar)
観測時間01/29 00:00 BRST (01/29 02:00 UTC)
風向・風速北 3m/s
視程8000m
天気現象
全天の4割程度の雲 雲底高度 400m
全天を覆う雲 雲底高度 1220m
気温25℃
湿度89%
気圧1009hPa
METARSBRJ 290200Z 36006KT 8000 SCT013 OVC040 25/23 Q1009
過去の天気等 Google飛行場航空写真 Wunderground天気予報

過去48時間のMETAR

飛行場予報(TAF)
発表時間: 1/29 02:50 BRST (1/29 04:50 UTC)
予報対象時間: 29日4時 BRST ~ 29日16時 BRST
風向・風速東 1m/s
視程7000m
全天の4割程度の雲 雲底高度 460m
全天の8割程度の雲 雲底高度 1220m
29日4時 BRST ~ 29日8時 BRST に一時的に
風向・風速西 1m/s
視程4000m
天気現象霧雨 もや
全天の8割程度の雲 雲底高度 460m
29日9時 BRST ~ 29日11時 BRST に徐々に
風向・風速南 3m/s
視程8000m
少しの雲 雲底高度 910m
全天の4割程度の雲 雲底高度 1220m
29日13時 BRST ~ 29日15時 BRST に徐々に
風向・風速南 5m/s
視程6000m
天気現象
全天の4割程度の雲 雲底高度 610m
少しの塔状積雲 雲底高度 910m
29日15時 BRST ~ 29日16時 BRST に徐々に
風向・風速南南西 8m/s
視程4000m
天気現象雷雨
全天の4割程度の雲 雲底高度 460m
少しの積乱雲 雲底高度 910m
TAF SBRJ 290450Z 2906/2918 08002KT 7000 SCT015 BKN040 TN24/2909Z TX29/2915Z
TEMPO 2906/2910 26002KT 4000 DZ BR BKN015
BECMG 2911/2913 19005KT 8000 FEW030 SCT040
BECMG 2915/2917 17010KT 6000 RA SCT020 FEW030TCU
BECMG 2917/2918 20015KT 4000 TSRA SCT015 FEW030CB RMK PFV